Time,TemperatureF,DewpointF,PressureIn,WindDirection,WindDirectionDegrees,WindSpeedMPH,WindSpeedGustMPH,Humidity,HourlyPrecipIn,Conditions,Clouds,dailyrainin,SoftwareType,DateUTC
2013-03-08 00:01:00,22.5,6.6,31.01,NE,44,0.0,0.0,50,0.00,,---,0.00,VWS V14.01,2013-03-08 06:01:00,
2013-03-08 00:06:00,22.5,6.6,31.01,NE,37,0.0,0.0,50,0.00,,---,0.00,VWS V14.01,2013-03-08 06:06:00,
2013-03-08 00:11:00,20.5,2.0,31.01,NE,37,0.0,0.0,44,0.00,,---,0.00,VWS V14.01,2013-03-08 06:11:00,
2013-03-08 00:16:00,21.2,3.2,31.01,NE,37,0.0,0.0,45,0.00,,---,0.00,VWS V14.01,2013-03-08 06:16:00,
2013-03-08 00:21:00,20.8,2.9,31.01,WSW,255,0.0,0.0,45,0.00,,---,0.00,VWS V14.01,2013-03-08 06:21:00,
2013-03-08 00:26:00,20.7,3.2,31.01,WSW,255,0.0,0.0,46,0.00,,---,0.00,VWS V14.01,2013-03-08 06:26:00,
2013-03-08 00:31:00,21.0,3.5,31.01,WSW,255,0.0,0.0,46,0.00,,---,0.00,VWS V14.01,2013-03-08 06:31:00,
2013-03-08 00:36:00,21.6,4.0,31.01,WSW,255,0.0,0.0,46,0.00,,---,0.00,VWS V14.01,2013-03-08 06:36:00,
2013-03-08 00:41:00,21.7,4.6,31.01,WSW,255,0.0,0.0,47,0.00,,---,0.00,VWS V14.01,2013-03-08 06:41:00,
2013-03-08 00:46:00,21.7,4.6,31.01,WSW,255,0.0,0.0,47,0.00,,---,0.00,VWS V14.01,2013-03-08 06:46:00,
2013-03-08 00:51:00,21.7,4.6,31.01,WSW,255,0.0,0.0,47,0.00,,---,0.00,VWS V14.01,2013-03-08 06:51:00,
2013-03-08 00:56:00,21.7,4.6,31.01,WSW,256,0.0,0.0,47,0.00,,---,0.00,VWS V14.01,2013-03-08 06:56:00,
2013-03-08 01:01:00,21.7,4.6,31.01,NE,45,0.0,0.0,47,0.00,,---,0.00,VWS V14.01,2013-03-08 07:01:00,
2013-03-08 01:06:00,21.7,4.6,31.01,NE,53,0.0,0.0,47,0.00,,---,0.00,VWS V14.01,2013-03-08 07:06:00,
2013-03-08 01:11:00,21.7,4.6,31.01,ENE,59,0.0,0.0,47,0.00,,---,0.00,VWS V14.01,2013-03-08 07:11:00,
2013-03-08 01:16:00,21.7,4.6,31.01,ENE,59,0.0,0.0,47,0.00,,---,0.00,VWS V14.01,2013-03-08 07:16:00,
2013-03-08 01:21:00,21.7,4.6,31.01,ENE,59,0.0,0.0,47,0.00,,---,0.00,VWS V14.01,2013-03-08 07:21:00,
2013-03-08 01:26:00,21.7,4.6,31.01,ENE,59,0.0,0.0,47,0.00,,---,0.00,VWS V14.01,2013-03-08 07:26:00,
2013-03-08 01:31:00,21.7,4.6,31.01,ENE,59,0.0,0.0,47,0.00,,---,0.00,VWS V14.01,2013-03-08 07:31:00,
2013-03-08 01:36:00,21.7,4.6,31.01,ENE,59,0.0,0.0,47,0.00,,---,0.00,VWS V14.01,2013-03-08 07:36:00,
2013-03-08 01:41:00,19.8,1.4,31.01,ENE,59,0.0,0.0,44,0.00,,---,0.00,VWS V14.01,2013-03-08 07:41:00,
2013-03-08 01:46:00,19.8,1.4,31.01,ENE,59,0.0,0.0,44,0.00,,---,0.00,VWS V14.01,2013-03-08 07:46:00,
2013-03-08 01:51:00,20.3,1.9,31.01,ENE,59,0.0,0.0,44,0.00,,---,0.00,VWS V14.01,2013-03-08 07:51:00,
2013-03-08 01:56:00,20.7,2.2,31.01,ENE,59,0.0,0.0,44,0.00,,---,0.00,VWS V14.01,2013-03-08 07:56:00,
2013-03-08 02:01:00,21.2,2.7,31.01,ENE,59,0.0,0.0,44,0.00,,---,0.00,VWS V14.01,2013-03-08 08:01:00,
2013-03-08 02:06:00,20.8,2.4,31.01,ENE,59,0.0,0.0,44,0.00,,---,0.00,VWS V14.01,2013-03-08 08:06:00,
2013-03-08 02:11:00,20.5,2.0,31.01,ENE,59,0.0,0.0,44,0.00,,---,0.00,VWS V14.01,2013-03-08 08:11:00,
2013-03-08 02:16:00,20.5,2.0,31.01,ENE,59,0.0,0.0,44,0.00,,---,0.00,VWS V14.01,2013-03-08 08:16:00,
2013-03-08 02:21:00,20.5,2.0,31.01,ENE,59,0.0,0.0,44,0.00,,---,0.00,VWS V14.01,2013-03-08 08:21:00,
2013-03-08 02:26:00,20.5,2.0,31.01,NE,39,0.0,0.0,44,0.00,,---,0.00,VWS V14.01,2013-03-08 08:26:00,
2013-03-08 02:31:00,20.5,2.0,31.01,NE,48,0.0,0.0,44,0.00,,---,0.00,VWS V14.01,2013-03-08 08:31:00,
2013-03-08 02:36:00,20.5,2.0,31.01,NE,47,0.0,0.0,44,0.00,,---,0.00,VWS V14.01,2013-03-08 08:36:00,
2013-03-08 02:41:00,19.2,-0.1,31.01,NE,51,0.0,0.0,42,0.00,,---,0.00,VWS V14.01,2013-03-08 08:41:00,
2013-03-08 02:46:00,18.1,-1.6,31.01,NE,51,0.0,0.0,41,0.00,,---,0.00,VWS V14.01,2013-03-08 08:46:00,
2013-03-08 02:51:00,17.8,-1.4,31.01,NE,51,0.0,0.0,42,0.00,,---,0.00,VWS V14.01,2013-03-08 08:51:00,
2013-03-08 02:56:00,18.1,-0.6,31.01,NE,51,0.0,0.0,43,0.00,,---,0.00,VWS V14.01,2013-03-08 08:56:00,
2013-03-08 03:01:00,18.5,0.2,31.01,NE,49,0.0,0.0,44,0.00,,---,0.00,VWS V14.01,2013-03-08 09:01:00,
2013-03-08 03:06:00,18.3,0.1,31.01,NE,49,0.0,0.0,44,0.00,,---,0.00,VWS V14.01,2013-03-08 09:06:00,
2013-03-08 03:11:00,18.5,0.2,31.01,NE,49,0.0,0.0,44,0.00,,---,0.00,VWS V14.01,2013-03-08 09:11:00,
2013-03-08 03:16:00,18.0,-0.3,31.01,NE,49,0.0,0.0,44,0.00,,---,0.00,VWS V14.01,2013-03-08 09:16:00,
2013-03-08 03:21:00,17.4,-0.8,31.01,NE,49,0.0,0.0,44,0.00,,---,0.00,VWS V14.01,2013-03-08 09:21:00,
2013-03-08 03:26:00,17.4,-1.2,31.01,NE,49,0.0,0.0,43,0.00,,---,0.00,VWS V14.01,2013-03-08 09:26:00,
2013-03-08 03:31:00,18.3,-0.4,31.01,NE,49,0.0,0.0,43,0.00,,---,0.00,VWS V14.01,2013-03-08 09:31:00,
2013-03-08 03:36:00,19.4,1.5,31.01,NE,49,0.0,0.0,45,0.00,,---,0.00,VWS V14.01,2013-03-08 09:36:00,
2013-03-08 03:41:00,19.6,1.2,31.01,NE,49,0.0,0.0,44,0.00,,---,0.00,VWS V14.01,2013-03-08 09:41:00,
2013-03-08 03:46:00,19.6,1.2,31.01,NE,49,0.0,0.0,44,0.00,,---,0.00,VWS V14.01,2013-03-08 09:46:00,
2013-03-08 03:51:00,19.6,1.2,31.01,NE,49,0.0,0.0,44,0.00,,---,0.00,VWS V14.01,2013-03-08 09:51:00,
2013-03-08 03:56:00,19.6,1.2,31.01,NE,49,0.0,0.0,44,0.00,,---,0.00,VWS V14.01,2013-03-08 09:56:00,
2013-03-08 04:01:00,19.6,1.2,31.01,NE,49,0.0,0.0,44,0.00,,---,0.00,VWS V14.01,2013-03-08 10:01:00,
2013-03-08 04:06:00,19.6,1.2,31.01,NE,49,0.0,0.0,44,0.00,,---,0.00,VWS V14.01,2013-03-08 10:06:00,
2013-03-08 04:11:00,19.6,1.2,31.01,NE,49,0.0,0.0,44,0.00,,---,0.00,VWS V14.01,2013-03-08 10:11:00,
2013-03-08 04:16:00,19.6,1.2,31.01,NE,49,0.0,0.0,44,0.00,,---,0.00,VWS V14.01,2013-03-08 10:16:00,
2013-03-08 04:21:00,19.6,1.2,31.01,NE,49,0.0,0.0,44,0.00,,---,0.00,VWS V14.01,2013-03-08 10:21:00,
2013-03-08 04:26:00,19.6,1.2,31.01,NE,49,0.0,0.0,44,0.00,,---,0.00,VWS V14.01,2013-03-08 10:26:00,
2013-03-08 04:31:00,19.6,1.2,31.01,NE,49,0.0,0.0,44,0.00,,---,0.00,VWS V14.01,2013-03-08 10:31:00,
2013-03-08 04:36:00,19.6,1.2,31.01,NE,49,0.0,0.0,44,0.00,,---,0.00,VWS V14.01,2013-03-08 10:36:00,
2013-03-08 04:41:00,19.6,1.2,31.01,NE,49,0.0,0.0,44,0.00,,---,0.00,VWS V14.01,2013-03-08 10:41:00,
2013-03-08 04:46:00,19.6,1.2,31.01,NE,49,0.0,0.0,44,0.00,,---,0.00,VWS V14.01,2013-03-08 10:46:00,
2013-03-08 04:51:00,19.6,1.2,31.01,NE,49,0.0,0.0,44,0.00,,---,0.00,VWS V14.01,2013-03-08 10:51:00,
2013-03-08 04:56:00,19.6,1.2,31.01,NE,54,0.0,0.0,44,0.00,,---,0.00,VWS V14.01,2013-03-08 10:56:00,
2013-03-08 05:01:00,19.6,1.2,31.01,NE,54,0.0,0.0,44,0.00,,---,0.00,VWS V14.01,2013-03-08 11:01:00,
2013-03-08 05:06:00,19.6,1.2,31.01,NE,53,0.0,0.0,44,0.00,,---,0.00,VWS V14.01,2013-03-08 11:06:00,
2013-03-08 05:11:00,17.1,-2.1,31.01,NE,53,0.0,0.0,42,0.00,,---,0.00,VWS V14.01,2013-03-08 11:11:00,
2013-03-08 05:16:00,16.7,-2.9,31.01,NE,53,0.0,0.0,41,0.00,,---,0.00,VWS V14.01,2013-03-08 11:16:00,
2013-03-08 05:21:00,17.1,-1.6,31.01,NE,53,0.0,0.0,43,0.00,,---,0.00,VWS V14.01,2013-03-08 11:21:00,
2013-03-08 05:26:00,17.6,-0.6,31.01,NE,53,0.0,0.0,44,0.00,,---,0.00,VWS V14.01,2013-03-08 11:26:00,
2013-03-08 05:31:00,17.8,-0.4,31.01,NE,53,0.0,0.0,44,0.00,,---,0.00,VWS V14.01,2013-03-08 11:31:00,
2013-03-08 05:36:00,17.8,-0.4,31.01,NE,53,0.0,0.0,44,0.00,,---,0.00,VWS V14.01,2013-03-08 11:36:00,
2013-03-08 05:41:00,18.1,-0.1,31.01,ENE,58,0.0,0.0,44,0.00,,---,0.00,VWS V14.01,2013-03-08 11:41:00,
2013-03-08 05:46:00,18.1,-0.1,31.01,ENE,61,0.0,0.0,44,0.00,,---,0.00,VWS V14.01,2013-03-08 11:46:00,
2013-03-08 05:51:00,18.1,-0.1,31.01,NE,56,0.0,0.0,44,0.00,,---,0.00,VWS V14.01,2013-03-08 11:51:00,
2013-03-08 05:56:00,18.1,-0.1,31.01,NE,56,0.0,0.0,44,0.00,,---,0.00,VWS V14.01,2013-03-08 11:56:00,
2013-03-08 06:01:00,18.1,-0.1,31.01,NE,56,0.0,0.0,44,0.00,,---,0.00,VWS V14.01,2013-03-08 12:01:00,
2013-03-08 06:06:00,18.1,-0.1,31.01,NE,56,0.0,0.0,44,0.00,,---,0.00,VWS V14.01,2013-03-08 12:06:00,
2013-03-08 06:11:00,18.1,-0.1,31.01,NE,56,0.0,0.0,44,0.00,,---,0.00,VWS V14.01,2013-03-08 12:11:00,
2013-03-08 06:16:00,18.1,-0.1,31.01,NE,56,0.0,0.0,44,0.00,,---,0.00,VWS V14.01,2013-03-08 12:16:00,
2013-03-08 06:21:00,18.1,-0.1,31.01,NE,56,0.0,0.0,44,0.00,,---,0.00,VWS V14.01,2013-03-08 12:21:00,
2013-03-08 06:26:00,18.1,-0.1,31.01,NE,56,0.0,0.0,44,0.00,,---,0.00,VWS V14.01,2013-03-08 12:26:00,
2013-03-08 06:31:00,18.1,-0.1,31.01,NE,56,0.0,0.0,44,0.00,,---,0.00,VWS V14.01,2013-03-08 12:31:00,
2013-03-08 06:36:00,18.1,-0.1,31.01,NNE,21,0.0,0.0,44,0.00,,---,0.00,VWS V14.01,2013-03-08 12:36:00,
2013-03-08 06:41:00,18.1,-0.1,31.01,NNE,21,0.0,0.0,44,0.00,,---,0.00,VWS V14.01,2013-03-08 12:41:00,
2013-03-08 06:46:00,18.1,-0.1,31.01,NNE,23,0.0,0.0,44,0.00,,---,0.00,VWS V14.01,2013-03-08 12:46:00,
2013-03-08 06:51:00,18.1,-0.1,31.01,NNE,23,0.0,0.0,44,0.00,,---,0.00,VWS V14.01,2013-03-08 12:51:00,
2013-03-08 06:56:00,18.1,-0.1,31.01,NNE,23,0.0,0.0,44,0.00,,---,0.00,VWS V14.01,2013-03-08 12:56:00,
2013-03-08 07:01:00,18.1,-0.1,31.01,NNE,23,0.0,0.0,44,0.00,,---,0.00,VWS V14.01,2013-03-08 13:01:00,
2013-03-08 07:06:00,18.1,-0.1,31.01,NNE,23,0.0,0.0,44,0.00,,---,0.00,VWS V14.01,2013-03-08 13:06:00,
2013-03-08 07:11:00,18.1,-0.1,31.01,NNE,23,0.0,0.0,44,0.00,,---,0.00,VWS V14.01,2013-03-08 13:11:00,
2013-03-08 07:16:00,18.1,-0.1,31.01,NNE,23,0.0,0.0,44,0.00,,---,0.00,VWS V14.01,2013-03-08 13:16:00,
2013-03-08 07:21:00,18.1,-0.1,31.01,NNE,23,0.0,0.0,44,0.00,,---,0.00,VWS V14.01,2013-03-08 13:21:00,
2013-03-08 07:26:00,18.1,-0.1,31.01,NNE,23,0.0,0.0,44,0.00,,---,0.00,VWS V14.01,2013-03-08 13:26:00,
2013-03-08 07:31:00,18.1,-0.1,31.01,NNE,23,0.0,0.0,44,0.00,,---,0.00,VWS V14.01,2013-03-08 13:31:00,
2013-03-08 07:36:00,18.1,-0.1,31.01,NNE,23,0.0,0.0,44,0.00,,---,0.00,VWS V14.01,2013-03-08 13:36:00,
2013-03-08 07:41:00,18.1,-0.1,31.01,NNE,23,0.0,0.0,44,0.00,,---,0.00,VWS V14.01,2013-03-08 13:41:00,
2013-03-08 07:46:00,18.1,-0.1,31.01,NNE,23,0.0,0.0,44,0.00,,---,0.00,VWS V14.01,2013-03-08 13:46:00,
2013-03-08 07:51:00,18.1,-0.1,31.01,NNE,23,0.0,0.0,44,0.00,,---,0.00,VWS V14.01,2013-03-08 13:51:00,
2013-03-08 07:56:00,18.1,0.0,31.01,NNE,23,0.0,0.0,0,0.00,,---,0.00,VWS V14.01,2013-03-08 13:56:00,
2013-03-08 08:01:00,18.1,0.0,31.01,NNE,23,0.0,0.0,0,0.00,,---,0.00,VWS V14.01,2013-03-08 14:01:00,
2013-03-08 08:06:00,18.1,0.0,31.01,NNE,23,0.0,0.0,0,0.00,,---,0.00,VWS V14.01,2013-03-08 14:06:00,
2013-03-08 08:11:00,18.1,0.0,31.01,NNE,23,0.0,0.0,0,0.00,,---,0.00,VWS V14.01,2013-03-08 14:11:00,
2013-03-08 08:16:00,18.1,0.0,31.01,NE,56,0.0,0.0,0,0.00,,---,0.00,VWS V14.01,2013-03-08 14:16:00,
2013-03-08 08:21:00,18.1,0.0,31.01,NE,52,0.0,0.0,0,0.00,,---,0.00,VWS V14.01,2013-03-08 14:21:00,
2013-03-08 08:26:00,18.1,0.0,31.01,NE,48,0.0,0.0,0,0.00,,---,0.00,VWS V14.01,2013-03-08 14:26:00,
2013-03-08 08:31:00,18.1,0.0,31.01,NE,45,8.1,8.1,0,0.00,,---,0.00,VWS V14.01,2013-03-08 14:31:00,
2013-03-08 08:36:00,18.1,0.0,31.01,ENE,57,6.3,7.2,0,0.00,,---,0.00,VWS V14.01,2013-03-08 14:36:00,
2013-03-08 08:41:00,18.1,0.0,31.01,NE,51,8.1,8.1,0,0.00,,---,0.00,VWS V14.01,2013-03-08 14:41:00,
2013-03-08 08:46:00,18.1,0.0,31.01,NE,43,7.2,7.2,0,0.00,,---,0.00,VWS V14.01,2013-03-08 14:46:00,
2013-03-08 08:51:00,18.1,0.0,31.01,NE,43,7.2,7.2,0,0.00,,---,0.00,VWS V14.01,2013-03-08 14:51:00,
2013-03-08 08:56:00,18.1,0.0,31.01,ENE,59,8.1,8.1,0,0.00,,---,0.00,VWS V14.01,2013-03-08 14:56:00,
2013-03-08 09:01:00,18.1,0.0,31.01,NE,49,8.1,8.1,0,0.00,,---,0.00,VWS V14.01,2013-03-08 15:01:00,
2013-03-08 09:06:00,18.1,0.0,31.01,NE,42,8.1,8.1,0,0.00,,---,0.00,VWS V14.01,2013-03-08 15:06:00,
2013-03-08 09:11:00,18.1,0.0,31.01,NE,50,9.8,9.8,0,0.00,,---,0.00,VWS V14.01,2013-03-08 15:11:00,
2013-03-08 09:16:00,18.1,0.0,31.01,NE,43,8.1,10.7,0,0.00,,---,0.00,VWS V14.01,2013-03-08 15:16:00,
2013-03-08 09:21:00,18.1,0.0,31.01,NE,49,8.1,10.7,0,0.00,,---,0.00,VWS V14.01,2013-03-08 15:21:00,
2013-03-08 09:26:00,18.1,0.0,31.01,East,79,9.8,9.8,0,0.00,,---,0.00,VWS V14.01,2013-03-08 15:26:00,
2013-03-08 09:31:00,18.1,0.0,31.01,ENE,58,5.4,5.4,0,0.00,,---,0.00,VWS V14.01,2013-03-08 15:31:00,
2013-03-08 09:36:00,18.1,0.0,31.01,ENE,59,8.1,8.1,0,0.00,,---,0.00,VWS V14.01,2013-03-08 15:36:00,
2013-03-08 09:41:00,18.1,0.0,31.01,NE,38,6.3,8.1,0,0.00,,---,0.00,VWS V14.01,2013-03-08 15:41:00,
2013-03-08 09:46:00,18.1,0.0,31.01,ESE,106,8.1,8.1,0,0.00,,---,0.00,VWS V14.01,2013-03-08 15:46:00,
2013-03-08 09:51:00,18.1,0.0,31.01,NE,41,7.2,11.6,0,0.00,,---,0.00,VWS V14.01,2013-03-08 15:51:00,
2013-03-08 09:56:00,18.1,0.0,31.01,East,81,5.4,7.2,0,0.00,,---,0.00,VWS V14.01,2013-03-08 15:56:00,
2013-03-08 10:00:00,18.1,0.0,31.01,ENE,68,6.3,8.1,0,0.00,,---,0.00,VWS V14.01,2013-03-08 16:00:00,
2013-03-08 10:05:00,18.1,0.0,31.01,East,79,6.3,7.2,0,0.00,,---,0.00,VWS V14.01,2013-03-08 16:05:00,
2013-03-08 10:10:00,18.1,0.0,31.01,ESE,117,11.6,11.6,0,0.00,,---,0.00,VWS V14.01,2013-03-08 16:10:00,
2013-03-08 10:15:00,18.1,0.0,31.01,SE,125,11.6,11.6,0,0.00,,---,0.00,VWS V14.01,2013-03-08 16:15:00,
2013-03-08 10:21:00,18.1,0.0,31.01,NE,50,5.4,5.4,0,0.00,,---,0.00,VWS V14.01,2013-03-08 16:21:00,
2013-03-08 10:26:00,18.1,0.0,31.01,SE,126,6.3,6.3,0,0.00,,---,0.00,VWS V14.01,2013-03-08 16:26:00,
2013-03-08 10:30:00,18.1,0.0,31.01,East,83,6.3,10.7,0,0.00,,---,0.00,VWS V14.01,2013-03-08 16:30:00,
2013-03-08 10:35:00,18.1,0.0,31.01,SSE,155,5.4,11.6,0,0.00,,---,0.00,VWS V14.01,2013-03-08 16:35:00,
2013-03-08 10:40:00,40.8,3.9,31.01,NE,50,9.8,16.6,21,0.00,,---,0.00,VWS V14.01,2013-03-08 16:40:00,
2013-03-08 10:45:00,41.4,4.4,31.01,ENE,63,11.6,11.6,21,0.00,,---,0.00,VWS V14.01,2013-03-08 16:45:00,
2013-03-08 10:50:00,42.1,5.0,31.01,ESE,120,10.7,12.5,21,0.00,,---,0.00,VWS V14.01,2013-03-08 16:50:00,
2013-03-08 10:55:00,43.0,4.7,31.01,ENE,58,5.4,8.1,20,0.00,,---,0.00,VWS V14.01,2013-03-08 16:55:00,
2013-03-08 11:00:00,42.1,5.0,31.01,East,90,12.5,12.5,21,0.00,,---,0.00,VWS V14.01,2013-03-08 17:00:00,
2013-03-08 11:05:00,41.9,4.8,31.01,SE,146,7.2,10.7,21,0.00,,---,0.00,VWS V14.01,2013-03-08 17:05:00,
2013-03-08 11:10:00,43.0,4.7,31.01,SE,141,10.7,10.7,20,0.00,,---,0.00,VWS V14.01,2013-03-08 17:10:00,
2013-03-08 11:15:00,43.0,4.7,31.01,SE,138,8.1,8.1,20,0.00,,---,0.00,VWS V14.01,2013-03-08 17:15:00,
2013-03-08 11:20:00,43.0,4.7,31.01,East,87,5.4,11.6,20,0.00,,---,0.00,VWS V14.01,2013-03-08 17:20:00,
2013-03-08 11:25:00,43.0,4.7,31.01,East,88,11.6,11.6,20,0.00,,---,0.00,VWS V14.01,2013-03-08 17:25:00,
2013-03-08 11:30:00,43.0,4.7,31.01,NE,41,8.1,9.8,20,0.00,,---,0.00,VWS V14.01,2013-03-08 17:30:00,
2013-03-08 11:35:00,43.0,4.7,31.01,SE,136,16.6,16.6,20,0.00,,---,0.00,VWS V14.01,2013-03-08 17:35:00,
2013-03-08 11:40:00,39.9,3.2,31.01,SE,126,9.8,15.2,21,0.00,,---,0.00,VWS V14.01,2013-03-08 17:40:00,
2013-03-08 11:45:00,39.2,2.6,31.01,ESE,104,15.2,15.2,21,0.00,,---,0.00,VWS V14.01,2013-03-08 17:45:00,
2013-03-08 11:50:00,40.6,3.8,31.01,ESE,119,10.7,11.6,21,0.00,,---,0.00,VWS V14.01,2013-03-08 17:50:00,
2013-03-08 11:55:00,42.1,5.0,31.01,SE,142,13.4,13.4,21,0.00,,---,0.00,VWS V14.01,2013-03-08 17:55:00,
2013-03-08 12:00:00,39.9,3.2,31.01,SE,128,12.5,12.5,21,0.00,,---,0.00,VWS V14.01,2013-03-08 18:00:00,
2013-03-08 12:05:00,39.4,2.7,31.01,SE,139,10.7,11.6,21,0.00,,---,0.00,VWS V14.01,2013-03-08 18:05:00,
2013-03-08 12:10:00,41.2,4.2,31.01,ESE,120,0.0,7.2,21,0.00,,---,0.00,VWS V14.01,2013-03-08 18:10:00,
2013-03-08 12:15:00,41.2,4.2,31.01,SE,128,11.6,12.5,21,0.00,,---,0.00,VWS V14.01,2013-03-08 18:15:00,
2013-03-08 12:20:00,41.2,4.2,31.01,SE,136,11.6,11.6,21,0.00,,---,0.00,VWS V14.01,2013-03-08 18:20:00,
2013-03-08 12:25:00,41.2,4.2,31.01,SE,133,9.8,10.7,21,0.00,,---,0.00,VWS V14.01,2013-03-08 18:25:00,
2013-03-08 12:30:00,41.2,4.2,31.01,SE,139,12.5,12.5,21,0.00,,---,0.00,VWS V14.01,2013-03-08 18:30:00,
2013-03-08 12:35:00,41.2,4.2,31.01,SSE,158,11.6,12.5,21,0.00,,---,0.00,VWS V14.01,2013-03-08 18:35:00,
2013-03-08 12:40:00,38.5,2.0,31.01,SSE,149,11.6,11.6,21,0.00,,---,0.00,VWS V14.01,2013-03-08 18:40:00,
2013-03-08 12:45:00,38.7,2.1,31.01,SE,125,8.1,11.6,21,0.00,,---,0.00,VWS V14.01,2013-03-08 18:45:00,
2013-03-08 12:50:00,38.8,2.3,31.01,SE,136,12.5,12.5,21,0.00,,---,0.00,VWS V14.01,2013-03-08 18:50:00,
2013-03-08 12:55:00,38.5,2.0,31.01,SE,139,12.5,15.2,21,0.00,,---,0.00,VWS V14.01,2013-03-08 18:55:00,
2013-03-08 13:00:00,38.5,2.0,31.01,SE,135,12.5,15.2,21,0.00,,---,0.00,VWS V14.01,2013-03-08 19:00:00,
2013-03-08 13:05:00,38.5,2.0,31.01,SE,133,10.7,12.5,21,0.00,,---,0.00,VWS V14.01,2013-03-08 19:05:00,
2013-03-08 13:10:00,37.9,1.5,31.01,SE,142,14.3,14.3,21,0.00,,---,0.00,VWS V14.01,2013-03-08 19:10:00,
2013-03-08 13:15:00,37.9,1.5,31.01,SE,139,13.4,16.1,21,0.00,,---,0.00,VWS V14.01,2013-03-08 19:15:00,
2013-03-08 13:20:00,37.9,1.5,31.01,SSE,156,12.5,12.5,21,0.00,,---,0.00,VWS V14.01,2013-03-08 19:20:00,
2013-03-08 13:25:00,37.9,1.5,31.01,SE,131,10.7,11.6,21,0.00,,---,0.00,VWS V14.01,2013-03-08 19:25:00,
2013-03-08 13:30:00,37.9,1.5,31.01,SE,145,17.4,17.4,21,0.00,,---,0.00,VWS V14.01,2013-03-08 19:30:00,
2013-03-08 13:35:00,37.9,1.5,31.01,SE,134,10.7,10.7,21,0.00,,---,0.00,VWS V14.01,2013-03-08 19:35:00,
2013-03-08 13:40:00,37.9,1.5,31.01,SSE,152,11.6,15.2,21,0.00,,---,0.00,VWS V14.01,2013-03-08 19:40:00,
2013-03-08 13:45:00,37.9,1.5,31.01,SSE,153,10.7,11.6,21,0.00,,---,0.00,VWS V14.01,2013-03-08 19:45:00,
2013-03-08 13:50:00,37.9,1.5,31.01,SE,134,12.5,12.5,21,0.00,,---,0.00,VWS V14.01,2013-03-08 19:50:00,
2013-03-08 13:55:00,37.9,1.5,31.01,SE,138,12.5,12.5,21,0.00,,---,0.00,VWS V14.01,2013-03-08 19:55:00,
2013-03-08 14:00:00,37.9,1.5,31.01,SE,140,10.7,11.6,21,0.00,,---,0.00,VWS V14.01,2013-03-08 20:00:00,
2013-03-08 14:05:00,37.9,1.5,31.01,SSE,151,12.5,12.5,21,0.00,,---,0.00,VWS V14.01,2013-03-08 20:05:00,
2013-03-08 14:10:00,37.9,1.5,31.01,SE,124,9.8,10.7,21,0.00,,---,0.00,VWS V14.01,2013-03-08 20:10:00,
2013-03-08 14:15:00,37.9,1.5,31.01,SE,125,12.5,12.5,21,0.00,,---,0.00,VWS V14.01,2013-03-08 20:15:00,
2013-03-08 14:20:00,37.9,1.5,31.01,SE,134,5.4,5.4,21,0.00,,---,0.00,VWS V14.01,2013-03-08 20:20:00,
2013-03-08 14:25:00,37.9,1.5,31.01,SE,139,7.2,8.1,21,0.00,,---,0.00,VWS V14.01,2013-03-08 20:25:00,
2013-03-08 14:30:00,37.9,1.5,31.01,East,99,6.3,9.8,21,0.00,,---,0.00,VWS V14.01,2013-03-08 20:30:00,
2013-03-08 14:35:00,37.9,1.5,31.01,ENE,64,9.8,9.8,21,0.00,,---,0.00,VWS V14.01,2013-03-08 20:35:00,
2013-03-08 14:40:00,37.9,1.5,31.01,NE,54,10.7,12.5,21,0.00,,---,0.00,VWS V14.01,2013-03-08 20:40:00,
2013-03-08 14:45:00,37.9,1.5,31.01,ENE,65,10.7,10.7,21,0.00,,---,0.00,VWS V14.01,2013-03-08 20:45:00,
2013-03-08 14:50:00,37.9,1.5,31.01,ENE,73,10.7,11.6,21,0.00,,---,0.00,VWS V14.01,2013-03-08 20:50:00,
2013-03-08 14:55:00,37.9,1.5,31.01,ENE,58,9.8,9.8,21,0.00,,---,0.00,VWS V14.01,2013-03-08 20:55:00,
2013-03-08 15:00:00,37.9,1.5,31.01,ENE,65,9.8,9.8,21,0.00,,---,0.00,VWS V14.01,2013-03-08 21:00:00,
2013-03-08 15:05:00,37.9,1.5,31.01,ENE,58,10.7,12.5,21,0.00,,---,0.00,VWS V14.01,2013-03-08 21:05:00,
2013-03-08 15:10:00,37.9,1.5,31.01,ENE,77,6.3,8.1,21,0.00,,---,0.00,VWS V14.01,2013-03-08 21:10:00,
2013-03-08 15:15:00,37.9,1.5,31.01,ENE,70,9.8,9.8,21,0.00,,---,0.00,VWS V14.01,2013-03-08 21:15:00,
2013-03-08 15:20:00,37.9,1.5,31.01,NE,53,6.3,9.8,21,0.00,,---,0.00,VWS V14.01,2013-03-08 21:20:00,
2013-03-08 15:25:00,37.9,1.5,31.01,ENE,60,7.2,7.2,21,0.00,,---,0.00,VWS V14.01,2013-03-08 21:25:00,
2013-03-08 15:30:00,37.9,1.5,31.01,NE,53,6.3,7.2,21,0.00,,---,0.00,VWS V14.01,2013-03-08 21:30:00,
2013-03-08 15:35:00,37.9,1.5,31.01,NE,46,5.4,9.8,21,0.00,,---,0.00,VWS V14.01,2013-03-08 21:35:00,
2013-03-08 15:40:00,39.2,2.6,31.01,ESE,120,7.2,9.8,21,0.00,,---,0.00,VWS V14.01,2013-03-08 21:40:00,
2013-03-08 15:45:00,39.4,2.7,31.01,ENE,70,5.4,8.1,21,0.00,,---,0.00,VWS V14.01,2013-03-08 21:45:00,
2013-03-08 15:50:00,39.9,3.2,31.01,East,84,6.3,7.2,21,0.00,,---,0.00,VWS V14.01,2013-03-08 21:50:00,
2013-03-08 15:55:00,39.9,3.2,31.01,NE,54,6.3,8.1,21,0.00,,---,0.00,VWS V14.01,2013-03-08 21:55:00,
2013-03-08 16:00:00,39.6,2.9,31.01,SE,126,5.4,7.2,21,0.00,,---,0.00,VWS V14.01,2013-03-08 22:00:00,
2013-03-08 16:05:00,39.6,2.9,31.01,ENE,70,5.4,11.6,21,0.00,,---,0.00,VWS V14.01,2013-03-08 22:05:00,
2013-03-08 16:10:00,38.8,2.3,31.01,ENE,62,8.1,8.1,21,0.00,,---,0.00,VWS V14.01,2013-03-08 22:10:00,
2013-03-08 16:15:00,38.8,2.3,31.01,NE,48,8.1,10.7,21,0.00,,---,0.00,VWS V14.01,2013-03-08 22:15:00,
2013-03-08 16:20:00,38.8,2.3,31.01,ENE,64,8.1,8.1,21,0.00,,---,0.00,VWS V14.01,2013-03-08 22:20:00,
2013-03-08 16:25:00,38.8,2.3,31.01,NE,49,8.1,8.1,21,0.00,,---,0.00,VWS V14.01,2013-03-08 22:25:00,
2013-03-08 16:30:00,38.8,2.3,31.01,ENE,64,5.4,6.3,21,0.00,,---,0.00,VWS V14.01,2013-03-08 22:30:00,
2013-03-08 16:35:00,38.8,2.3,31.01,ENE,63,7.2,7.2,21,0.00,,---,0.00,VWS V14.01,2013-03-08 22:35:00,
2013-03-08 16:40:00,37.0,1.7,31.01,ENE,76,8.1,8.1,22,0.00,,---,0.00,VWS V14.01,2013-03-08 22:40:00,
2013-03-08 16:45:00,37.4,1.0,31.01,East,91,5.4,6.3,21,0.00,,---,0.00,VWS V14.01,2013-03-08 22:45:00,
2013-03-08 16:50:00,36.9,1.6,31.01,East,84,7.2,7.2,22,0.00,,---,0.00,VWS V14.01,2013-03-08 22:50:00,
2013-03-08 16:55:00,36.1,1.0,31.01,NE,38,6.3,6.3,22,0.00,,---,0.00,VWS V14.01,2013-03-08 22:55:00,
2013-03-08 17:00:00,35.6,2.4,31.01,ENE,62,7.2,11.6,24,0.00,,---,0.00,VWS V14.01,2013-03-08 23:00:00,
2013-03-08 17:05:00,35.4,3.1,31.01,ESE,112,6.3,9.8,25,0.00,,---,0.00,VWS V14.01,2013-03-08 23:05:00,
2013-03-08 17:10:00,35.4,3.1,31.01,ENE,69,7.2,8.1,25,0.00,,---,0.00,VWS V14.01,2013-03-08 23:10:00,
2013-03-08 17:15:00,35.1,2.8,31.01,ENE,71,6.3,6.3,25,0.00,,---,0.00,VWS V14.01,2013-03-08 23:15:00,
2013-03-08 17:20:00,35.1,2.8,31.01,ENE,77,7.2,7.2,25,0.00,,---,0.00,VWS V14.01,2013-03-08 23:20:00,
2013-03-08 17:25:00,34.9,4.3,31.01,ENE,78,8.1,8.1,27,0.00,,---,0.00,VWS V14.01,2013-03-08 23:25:00,
2013-03-08 17:30:00,34.7,6.4,31.01,ENE,62,6.3,7.2,30,0.00,,---,0.00,VWS V14.01,2013-03-08 23:30:00,
2013-03-08 17:35:00,34.5,6.3,31.01,NE,50,5.4,6.3,30,0.00,,---,0.00,VWS V14.01,2013-03-08 23:35:00,
2013-03-08 17:40:00,34.5,6.3,31.01,ENE,73,5.4,5.4,30,0.00,,---,0.00,VWS V14.01,2013-03-08 23:40:00,
2013-03-08 17:45:00,34.2,6.0,31.01,ENE,61,7.2,7.2,30,0.00,,---,0.00,VWS V14.01,2013-03-08 23:45:00,
2013-03-08 17:50:00,33.8,6.4,31.01,ENE,59,4.5,5.4,31,0.00,,---,0.00,VWS V14.01,2013-03-08 23:50:00,
2013-03-08 17:55:00,33.6,6.9,31.01,NE,55,5.4,5.4,32,0.00,,---,0.00,VWS V14.01,2013-03-08 23:55:00,
2013-03-08 18:00:00,33.6,6.9,31.01,ENE,64,5.4,5.4,32,0.00,,---,0.00,VWS V14.01,2013-03-09 00:00:00,
2013-03-08 18:05:00,33.4,8.1,31.01,ENE,65,5.4,6.3,34,0.00,,---,0.00,VWS V14.01,2013-03-09 00:05:00,
2013-03-08 18:10:00,33.4,8.1,31.01,ENE,68,4.5,6.3,34,0.00,,---,0.00,VWS V14.01,2013-03-09 00:10:00,
2013-03-08 18:15:00,33.1,7.8,31.01,ESE,110,0.0,0.0,34,0.00,,---,0.00,VWS V14.01,2013-03-09 00:15:00,
2013-03-08 18:20:00,33.1,8.4,31.01,East,93,0.0,0.0,35,0.00,,---,0.00,VWS V14.01,2013-03-09 00:20:00,
2013-03-08 18:25:00,33.1,9.1,31.01,East,85,0.0,0.0,36,0.00,,---,0.00,VWS V14.01,2013-03-09 00:25:00,
2013-03-08 18:30:00,33.1,8.4,31.01,ENE,59,0.0,0.0,35,0.00,,---,0.00,VWS V14.01,2013-03-09 00:30:00,
2013-03-08 18:35:00,32.7,8.1,31.01,ESE,110,0.0,0.0,35,0.00,,---,0.00,VWS V14.01,2013-03-09 00:35:00,
2013-03-08 18:40:00,32.7,8.7,31.01,East,86,0.0,0.0,36,0.00,,---,0.00,VWS V14.01,2013-03-09 00:40:00,
2013-03-08 18:45:00,32.7,8.7,31.01,ESE,103,0.0,0.0,36,0.00,,---,0.00,VWS V14.01,2013-03-09 00:45:00,
2013-03-08 18:50:00,32.9,8.3,31.01,ENE,64,6.3,6.3,35,0.00,,---,0.00,VWS V14.01,2013-03-09 00:50:00,
2013-03-08 18:55:00,32.7,7.5,31.01,ENE,62,4.5,5.4,34,0.00,,---,0.00,VWS V14.01,2013-03-09 00:55:00,
2013-03-08 19:00:00,32.5,7.9,31.01,ENE,62,5.4,5.4,35,0.00,,---,0.00,VWS V14.01,2013-03-09 01:00:00,
2013-03-08 19:05:00,32.5,8.6,31.01,ENE,64,5.4,5.4,36,0.00,,---,0.00,VWS V14.01,2013-03-09 01:05:00,
2013-03-08 19:10:00,32.5,8.6,31.01,ENE,63,0.0,0.0,36,0.00,,---,0.00,VWS V14.01,2013-03-09 01:10:00,
2013-03-08 19:15:00,32.5,8.6,31.01,ENE,63,5.4,5.4,36,0.00,,---,0.00,VWS V14.01,2013-03-09 01:15:00,
2013-03-08 19:20:00,32.5,8.6,31.01,ENE,60,7.2,8.1,36,0.00,,---,0.00,VWS V14.01,2013-03-09 01:20:00,
2013-03-08 19:25:00,32.5,8.6,31.01,NE,55,8.1,8.1,36,0.00,,---,0.00,VWS V14.01,2013-03-09 01:25:00,
2013-03-08 19:30:00,32.5,8.6,31.01,ENE,65,7.2,7.2,36,0.00,,---,0.00,VWS V14.01,2013-03-09 01:30:00,
2013-03-08 19:35:00,32.5,8.6,31.01,ENE,68,5.4,6.3,36,0.00,,---,0.00,VWS V14.01,2013-03-09 01:35:00,
2013-03-08 19:40:00,32.5,8.6,31.01,ENE,68,0.0,0.0,36,0.00,,---,0.00,VWS V14.01,2013-03-09 01:40:00,
2013-03-08 19:45:00,32.5,8.6,31.01,ENE,68,0.0,0.0,36,0.00,,---,0.00,VWS V14.01,2013-03-09 01:45:00,
2013-03-08 19:50:00,32.5,8.6,31.01,East,80,0.0,0.0,36,0.00,,---,0.00,VWS V14.01,2013-03-09 01:50:00,
2013-03-08 19:55:00,32.5,8.6,31.01,ENE,71,5.4,5.4,36,0.00,,---,0.00,VWS V14.01,2013-03-09 01:55:00,
2013-03-08 20:00:00,32.5,8.6,31.01,ENE,59,8.1,8.1,36,0.00,,---,0.00,VWS V14.01,2013-03-09 02:00:00,
2013-03-08 20:05:00,32.5,8.6,31.01,ENE,60,8.1,9.8,36,0.00,,---,0.00,VWS V14.01,2013-03-09 02:05:00,
2013-03-08 20:10:00,32.5,8.6,31.01,NE,54,10.7,12.5,36,0.00,,---,0.00,VWS V14.01,2013-03-09 02:10:00,
2013-03-08 20:15:00,32.5,8.6,31.01,NE,55,10.7,10.7,36,0.00,,---,0.00,VWS V14.01,2013-03-09 02:15:00,
2013-03-08 20:20:00,32.5,8.6,31.01,ENE,63,8.1,8.1,36,0.00,,---,0.00,VWS V14.01,2013-03-09 02:20:00,
2013-03-08 20:25:00,32.5,8.6,31.01,ENE,60,8.9,10.7,36,0.00,,---,0.00,VWS V14.01,2013-03-09 02:25:00,
2013-03-08 20:30:00,32.5,8.6,31.01,ENE,61,10.7,10.7,36,0.00,,---,0.00,VWS V14.01,2013-03-09 02:30:00,
2013-03-08 20:35:00,32.5,8.6,31.01,NE,54,11.6,11.6,36,0.00,,---,0.00,VWS V14.01,2013-03-09 02:35:00,
2013-03-08 20:40:00,32.5,8.6,31.01,ENE,66,11.6,11.6,36,0.00,,---,0.00,VWS V14.01,2013-03-09 02:40:00,
2013-03-08 20:45:00,32.5,8.6,31.01,NE,56,8.1,8.1,36,0.00,,---,0.00,VWS V14.01,2013-03-09 02:45:00,
2013-03-08 20:50:00,32.5,8.6,31.01,ENE,66,8.1,8.1,36,0.00,,---,0.00,VWS V14.01,2013-03-09 02:50:00,
2013-03-08 20:55:00,32.5,8.6,31.01,ENE,68,7.2,7.2,36,0.00,,---,0.00,VWS V14.01,2013-03-09 02:55:00,
2013-03-08 21:00:00,32.5,8.6,31.01,ENE,63,9.8,9.8,36,0.00,,---,0.00,VWS V14.01,2013-03-09 03:00:00,
2013-03-08 21:05:00,32.5,8.6,31.01,NE,51,7.2,8.9,36,0.00,,---,0.00,VWS V14.01,2013-03-09 03:05:00,
2013-03-08 21:10:00,32.5,8.6,31.01,ENE,60,6.3,7.2,36,0.00,,---,0.00,VWS V14.01,2013-03-09 03:10:00,
2013-03-08 21:15:00,32.5,8.6,31.01,East,79,0.0,0.0,36,0.00,,---,0.00,VWS V14.01,2013-03-09 03:15:00,
2013-03-08 21:20:00,32.5,8.6,31.01,East,94,0.0,0.0,36,0.00,,---,0.00,VWS V14.01,2013-03-09 03:20:00,
2013-03-08 21:25:00,32.5,8.6,31.01,East,85,8.1,8.1,36,0.00,,---,0.00,VWS V14.01,2013-03-09 03:25:00,
2013-03-08 21:30:00,32.5,8.6,31.01,ENE,69,7.2,8.1,36,0.00,,---,0.00,VWS V14.01,2013-03-09 03:30:00,
2013-03-08 21:35:00,32.5,8.6,31.01,NE,50,8.1,8.1,36,0.00,,---,0.00,VWS V14.01,2013-03-09 03:35:00,
2013-03-08 21:40:00,32.5,8.6,31.01,NE,48,11.6,12.5,36,0.00,,---,0.00,VWS V14.01,2013-03-09 03:40:00,
2013-03-08 21:45:00,32.5,8.6,31.01,NE,44,8.9,11.6,36,0.00,,---,0.00,VWS V14.01,2013-03-09 03:45:00,
2013-03-08 21:50:00,32.5,8.6,31.01,ENE,60,8.1,8.1,36,0.00,,---,0.00,VWS V14.01,2013-03-09 03:50:00,
2013-03-08 21:55:00,32.5,8.6,31.01,ENE,76,7.2,7.2,36,0.00,,---,0.00,VWS V14.01,2013-03-09 03:55:00,
2013-03-08 22:00:00,32.5,8.6,31.01,ENE,67,6.3,7.2,36,0.00,,---,0.00,VWS V14.01,2013-03-09 04:00:00,
2013-03-08 22:05:00,32.5,8.6,31.01,ENE,60,5.4,5.4,36,0.00,,---,0.00,VWS V14.01,2013-03-09 04:05:00,
2013-03-08 22:10:00,32.5,8.6,31.01,ENE,70,4.5,6.3,36,0.00,,---,0.00,VWS V14.01,2013-03-09 04:10:00,
2013-03-08 22:15:00,32.5,8.6,31.01,ESE,110,0.0,0.0,36,0.00,,---,0.00,VWS V14.01,2013-03-09 04:15:00,
2013-03-08 22:20:00,32.5,8.6,31.01,SE,136,6.3,10.7,36,0.00,,---,0.00,VWS V14.01,2013-03-09 04:20:00,
2013-03-08 22:25:00,32.5,8.6,31.01,NE,46,5.4,8.1,36,0.00,,---,0.00,VWS V14.01,2013-03-09 04:25:00,
2013-03-08 22:30:00,32.5,8.6,31.01,East,87,5.4,8.1,36,0.00,,---,0.00,VWS V14.01,2013-03-09 04:30:00,
2013-03-08 22:35:00,32.5,8.6,31.01,NE,56,8.1,10.7,36,0.00,,---,0.00,VWS V14.01,2013-03-09 04:35:00,
2013-03-08 22:40:00,32.5,8.6,31.01,NE,45,7.2,8.1,36,0.00,,---,0.00,VWS V14.01,2013-03-09 04:40:00,
2013-03-08 22:45:00,32.5,8.6,31.01,SE,126,11.6,11.6,36,0.00,,---,0.00,VWS V14.01,2013-03-09 04:45:00,
2013-03-08 22:50:00,32.5,8.6,31.01,East,99,5.4,6.3,36,0.00,,---,0.00,VWS V14.01,2013-03-09 04:50:00,
2013-03-08 22:55:00,32.5,8.6,31.01,East,89,12.5,12.5,36,0.00,,---,0.00,VWS V14.01,2013-03-09 04:55:00,
2013-03-08 23:00:00,32.5,8.6,31.01,SE,127,6.3,6.3,36,0.00,,---,0.00,VWS V14.01,2013-03-09 05:00:00,
2013-03-08 23:05:00,32.5,8.6,31.01,ENE,58,6.3,9.8,36,0.00,,---,0.00,VWS V14.01,2013-03-09 05:05:00,
2013-03-08 23:10:00,32.5,8.6,31.01,ENE,58,8.1,8.1,36,0.00,,---,0.00,VWS V14.01,2013-03-09 05:10:00,
2013-03-08 23:15:00,32.5,8.6,31.01,ENE,78,5.4,8.1,36,0.00,,---,0.00,VWS V14.01,2013-03-09 05:15:00,
2013-03-08 23:20:00,32.5,8.6,31.01,ENE,72,7.2,7.2,36,0.00,,---,0.00,VWS V14.01,2013-03-09 05:20:00,
2013-03-08 23:25:00,32.5,8.6,31.01,ENE,70,8.1,8.1,36,0.00,,---,0.00,VWS V14.01,2013-03-09 05:25:00,
2013-03-08 23:30:00,32.5,8.6,31.01,East,89,6.3,6.3,36,0.00,,---,0.00,VWS V14.01,2013-03-09 05:30:00,
2013-03-08 23:35:00,32.5,8.6,31.01,ENE,73,6.3,6.3,36,0.00,,---,0.00,VWS V14.01,2013-03-09 05:35:00,
2013-03-08 23:40:00,32.5,8.6,31.01,East,79,7.2,12.5,36,0.00,,---,0.00,VWS V14.01,2013-03-09 05:40:00,
2013-03-08 23:45:00,32.5,8.6,31.01,East,82,11.6,11.6,36,0.00,,---,0.00,VWS V14.01,2013-03-09 05:45:00,
2013-03-08 23:50:00,32.5,8.6,31.01,ENE,78,12.5,12.5,36,0.00,,---,0.00,VWS V14.01,2013-03-09 05:50:00,
2013-03-08 23:55:00,32.5,8.6,31.01,ENE,57,8.1,8.9,36,0.00,,---,0.00,VWS V14.01,2013-03-09 05:55:00,